KGRK/GRK METAR and TAF weather

Enter ICAO airport designator
Station Type Date Time Source
KGRK METAR 2019/10/14 05:58 UTC NOAA

KGRK 140558Z AUTO 17004KT 10SM BKN036 OVC050 19/13 A2999 RMK AO2 SLP149 50004 $


Station Type Date Time Source
KGRK Decoded METAR 2019/10/14 05:58 UTC NOAA

Fort Hood, Robert Gray AAF Ft Hood, TX, United States (KGRK) 31-04N 097-49W
Oct 14, 2019 - 01:58 AM EDT / 2019.10.14 0558 UTC
Wind: from the S (170 degrees) at 5 MPH (4 KT):0
Visibility: 10 mile(s):0
Sky conditions: overcast
Temperature: 66 F (19 C)
Dew Point: 55 F (13 C)
Relative Humidity: 68%
Pressure (altimeter): 29.99 in. Hg (1015 hPa)
Pressure tendency: 0.01 inches (0.4 hPa) higher than three hours ago
ob: KGRK 140558Z AUTO 17004KT 10SM BKN036 OVC050 19/13 A2999 RMK AO2 SLP149 50004
cycle: 6

Station Type Date Time Source
KGRK TAF 2019/10/14 00:25 UTC NOAA

TAF KGRK 140000Z 1400/1506 14006KT 9999 BKN140 QNH2992INS
BECMG 1413/1414 18010G15KT 8000 -SHRA BKN010 BKN060 QNH2994INS
TEMPO 1420/1501 16010G20KT 6000 -TSRA BKN010CB
BECMG 1504/1505 12006KT 9999 NSW BKN010 QNH2993INS TX27/1421Z TN16/1412Z

Example: see airport list